Time;durP1;ratioP1;P1;durP2;ratioP2;P2;SDS_P1;SDS_P2;PMS_P1;PMS_P2;Temp;Humidity;BMP_temperature;BMP_pressure;BME280_temperature;BME280_humidity;BME280_pressure;Samples;Min_cycle;Max_cycle;Signal;HPM_P1;HPM_P2
2024/01/20 00:00:54;;;;;;;10.57;6.20;;;;;;;17.75;36.50;102561.53;4949550;29;20034;-71
2024/01/20 00:03:19;;;;;;;10.10;6.03;;;;;;;17.62;36.97;102543.78;4948755;29;20165;-72
2024/01/20 00:05:44;;;;;;;9.75;5.85;;;;;;;17.70;36.51;102563.53;4950492;29;20114;-71
2024/01/20 00:08:10;;;;;;;9.93;5.30;;;;;;;17.71;36.53;102569.66;4949993;29;20170;-71
2024/01/20 00:10:35;;;;;;;9.68;5.82;;;;;;;17.63;36.45;102564.78;4948675;28;20054;-70
2024/01/20 00:13:01;;;;;;;9.75;6.03;;;;;;;17.67;36.63;102562.84;4949771;29;20027;-71
2024/01/20 00:15:26;;;;;;;10.25;6.32;;;;;;;17.61;36.55;102560.53;4950316;29;20456;-71
2024/01/20 00:17:51;;;;;;;10.23;5.35;;;;;;;17.55;36.21;102553.81;4950337;29;20031;-70
2024/01/20 00:20:16;;;;;;;10.15;5.78;;;;;;;17.60;36.33;102564.94;4950703;29;20488;-71
2024/01/20 00:22:42;;;;;;;10.30;6.10;;;;;;;17.58;36.05;102566.81;4950423;29;20042;-71
2024/01/20 00:25:08;;;;;;;11.30;5.97;;;;;;;17.62;36.19;102578.91;4950968;28;20265;-71
2024/01/20 00:27:34;;;;;;;9.38;6.07;;;;;;;17.57;35.83;102568.59;4950351;28;20114;-71
2024/01/20 00:30:00;;;;;;;9.43;5.78;;;;;;;17.60;36.12;102575.50;4950525;28;20146;-70
2024/01/20 00:32:25;;;;;;;11.25;5.90;;;;;;;17.57;35.71;102570.38;4949851;28;20027;-70
2024/01/20 00:34:50;;;;;;;11.30;6.00;;;;;;;17.57;35.94;102578.28;4948255;28;20051;-72
2024/01/20 00:37:16;;;;;;;10.68;5.95;;;;;;;17.50;35.76;102561.94;4948040;28;20047;-71
2024/01/20 00:39:41;;;;;;;11.07;6.47;;;;;;;17.40;35.76;102550.16;4947936;29;21450;-71
2024/01/20 00:42:06;;;;;;;10.30;5.88;;;;;;;17.50;35.84;102563.72;4948332;29;20066;-70
2024/01/20 00:44:32;;;;;;;9.48;6.10;;;;;;;17.38;35.81;102544.13;4948498;29;20114;-71
2024/01/20 00:46:57;;;;;;;10.68;5.53;;;;;;;17.36;36.01;102540.72;4948538;29;20035;-72
2024/01/20 00:49:22;;;;;;;9.45;6.05;;;;;;;17.45;35.86;102563.09;4948965;29;20057;-70
2024/01/20 00:51:47;;;;;;;11.40;6.65;;;;;;;17.45;36.20;102563.97;4948551;29;20122;-71
2024/01/20 00:54:13;;;;;;;9.85;5.35;;;;;;;17.45;36.08;102568.38;4948253;29;20031;-72
2024/01/20 00:56:38;;;;;;;10.18;5.68;;;;;;;17.26;36.31;102534.19;4948355;29;20046;-71
2024/01/20 00:59:03;;;;;;;9.75;5.57;;;;;;;17.27;35.94;102547.28;4948288;29;20035;-71
2024/01/20 01:01:29;;;;;;;8.85;5.57;;;;;;;17.27;36.41;102544.66;4948532;29;20043;-71
2024/01/20 01:03:54;;;;;;;10.80;5.70;;;;;;;17.24;36.14;102539.53;4946028;28;20484;-71
2024/01/20 01:06:19;;;;;;;10.15;5.50;;;;;;;17.24;36.44;102539.53;4948669;29;20509;-72
2024/01/20 01:08:45;;;;;;;9.75;6.18;;;;;;;17.25;36.15;102551.78;4948278;29;20043;-71
2024/01/20 01:11:10;;;;;;;9.65;5.88;;;;;;;17.25;36.02;102537.78;4948406;29;20039;-72
2024/01/20 01:13:37;;;;;;;10.93;5.47;;;;;;;17.29;36.16;102558.63;4947915;29;20042;-71
2024/01/20 01:16:04;;;;;;;10.98;5.38;;;;;;;17.20;36.19;102535.38;4948364;29;20027;-71
2024/01/20 01:18:29;;;;;;;11.15;5.88;;;;;;;17.29;36.33;102557.75;4948253;28;20023;-72
2024/01/20 01:20:55;;;;;;;10.55;5.43;;;;;;;17.16;36.27;102541.72;4948100;28;20039;-71
2024/01/20 01:23:20;;;;;;;10.50;5.93;;;;;;;17.31;36.50;102566.47;4947931;29;20074;-72
2024/01/20 01:25:45;;;;;;;9.32;6.00;;;;;;;17.27;36.06;102560.47;4948128;29;20130;-71
2024/01/20 01:28:11;;;;;;;10.15;6.10;;;;;;;17.24;36.18;102560.63;4948217;29;20086;-71
2024/01/20 01:30:36;;;;;;;10.02;6.00;;;;;;;17.12;36.42;102540.19;4947314;29;20122;-72
2024/01/20 01:33:01;;;;;;;8.73;5.40;;;;;;;17.19;36.55;102560.84;4948178;29;20031;-71
2024/01/20 01:35:26;;;;;;;9.02;5.50;;;;;;;17.18;36.55;102566.19;4947842;29;20146;-71
2024/01/20 01:37:52;;;;;;;8.43;5.13;;;;;;;17.10;36.86;102558.69;4948239;29;20086;-70
2024/01/20 01:40:17;;;;;;;10.02;5.63;;;;;;;17.18;36.42;102571.47;4947531;29;20041;-70
2024/01/20 01:42:43;;;;;;;10.20;5.72;;;;;;;17.21;36.48;102576.56;4947357;29;20036;-71
2024/01/20 01:45:08;;;;;;;10.43;6.07;;;;;;;17.04;36.27;102557.22;4947842;29;20038;-70
2024/01/20 01:47:33;;;;;;;11.70;6.43;;;;;;;17.06;35.88;102561.56;4947639;29;20067;-72
2024/01/20 01:49:59;;;;;;;9.02;5.50;;;;;;;17.04;36.11;102559.00;4947663;28;20031;-71
2024/01/20 01:52:26;;;;;;;9.25;5.25;;;;;;;17.14;36.43;102581.31;4950788;28;20031;-71
2024/01/20 01:54:52;;;;;;;11.25;5.20;;;;;;;17.07;36.51;102572.03;4951423;28;20035;-72
2024/01/20 01:57:18;;;;;;;11.60;5.72;;;;;;;17.04;36.72;102575.66;4947695;28;20162;-71
2024/01/20 01:59:45;;;;;;;8.65;5.07;;;;;;;17.14;36.33;102605.03;4951246;28;20475;-71
2024/01/20 02:02:10;;;;;;;9.95;4.70;;;;;;;17.09;36.33;102599.13;4949572;29;20043;-71
2024/01/20 02:04:36;;;;;;;9.45;5.30;;;;;;;17.08;36.37;102601.84;4950827;29;20039;-71
2024/01/20 02:07:02;;;;;;;10.00;5.05;;;;;;;16.96;36.43;102590.97;4950611;28;20031;-71
2024/01/20 02:09:28;;;;;;;7.85;4.85;;;;;;;17.02;36.27;102603.84;4951082;28;20035;-71
2024/01/20 02:11:55;;;;;;;10.98;4.95;;;;;;;16.93;36.61;102587.66;4951006;28;20035;-71
2024/01/20 02:14:21;;;;;;;8.20;4.65;;;;;;;17.08;36.43;102609.75;4951090;28;20114;-71
2024/01/20 02:16:46;;;;;;;8.75;5.18;;;;;;;17.03;36.32;102607.34;4950763;28;20067;-71
2024/01/20 02:19:12;;;;;;;8.98;5.45;;;;;;;17.04;36.35;102612.53;4950933;29;20031;-71
2024/01/20 02:21:39;;;;;;;9.52;5.43;;;;;;;17.02;36.14;102608.25;4950963;29;20039;-71
2024/01/20 02:24:07;;;;;;;9.02;5.22;;;;;;;16.92;35.80;102597.31;4950972;29;20073;-71
2024/01/20 02:26:32;;;;;;;9.23;5.50;;;;;;;16.93;35.82;102595.56;4950736;28;20035;-71
2024/01/20 02:28:58;;;;;;;8.55;5.15;;;;;;;16.91;36.03;102592.13;4950729;29;20050;-71
2024/01/20 02:31:23;;;;;;;8.82;5.47;;;;;;;16.96;35.72;102601.50;4950894;29;20035;-71
2024/01/20 02:33:48;;;;;;;9.60;5.32;;;;;;;16.89;35.96;102596.63;4950455;29;20047;-71
2024/01/20 02:36:13;;;;;;;8.82;5.10;;;;;;;16.89;35.85;102596.63;4950542;29;20468;-71
2024/01/20 02:38:39;;;;;;;7.95;4.68;;;;;;;16.95;35.73;102623.50;4950239;29;20113;-71
2024/01/20 02:41:04;;;;;;;9.90;5.22;;;;;;;16.91;35.35;102607.91;4950124;29;20161;-71
2024/01/20 02:43:29;;;;;;;8.60;5.30;;;;;;;16.85;35.65;102601.16;4950479;29;20050;-71
2024/01/20 02:45:55;;;;;;;9.10;5.18;;;;;;;16.95;35.74;102618.22;4950395;29;20058;-71
2024/01/20 02:48:20;;;;;;;8.43;4.88;;;;;;;16.82;35.54;102596.03;4950539;29;20031;-71
2024/01/20 02:50:45;;;;;;;8.93;5.10;;;;;;;16.96;35.17;102613.84;4950258;29;20043;-71
2024/01/20 02:53:11;;;;;;;9.95;5.05;;;;;;;16.96;35.63;102616.47;4950554;29;20473;-71
2024/01/20 02:55:36;;;;;;;9.10;5.22;;;;;;;16.95;35.74;102623.50;4950209;29;20028;-71
2024/01/20 02:58:01;;;;;;;9.43;5.00;;;;;;;16.83;35.70;102595.97;4950220;29;20039;-71
2024/01/20 03:00:28;;;;;;;7.93;4.68;;;;;;;16.91;35.72;102608.78;4950301;29;20114;-71
2024/01/20 03:02:54;;;;;;;8.93;5.15;;;;;;;16.83;36.11;102608.25;4947120;28;20369;-71
2024/01/20 03:05:19;;;;;;;8.95;4.70;;;;;;;16.78;35.75;102605.00;4949868;28;20023;-71
2024/01/20 03:07:44;;;;;;;10.25;4.68;;;;;;;16.85;35.94;102623.09;4950009;29;20031;-71
2024/01/20 03:10:10;;;;;;;8.15;5.00;;;;;;;16.89;36.17;102636.97;4949812;29;20027;-71
2024/01/20 03:12:35;;;;;;;8.27;4.95;;;;;;;16.90;36.28;102635.19;4950127;28;20123;-71
2024/01/20 03:15:01;;;;;;;7.50;4.70;;;;;;;16.77;36.17;102613.84;4950394;29;20046;-71
2024/01/20 03:17:26;;;;;;;9.55;4.90;;;;;;;16.77;36.10;102619.94;4950004;29;21279;-71
2024/01/20 03:19:51;;;;;;;9.27;4.90;;;;;;;16.74;36.10;102614.81;4949815;29;20039;-71
2024/01/20 03:22:17;;;;;;;8.80;4.95;;;;;;;16.74;35.93;102620.09;4949441;29;20484;-71
2024/01/20 03:24:42;;;;;;;8.88;4.82;;;;;;;16.84;36.10;102639.78;4949774;29;20046;-71
2024/01/20 03:27:09;;;;;;;10.38;4.75;;;;;;;16.84;36.24;102636.28;4949466;29;20126;-71
2024/01/20 03:29:34;;;;;;;9.45;4.88;;;;;;;16.74;36.34;102621.88;4949784;29;20085;-70
2024/01/20 03:31:59;;;;;;;9.48;3.95;;;;;;;16.85;36.75;102648.56;4949276;29;20412;-71
2024/01/20 03:34:25;;;;;;;8.50;5.05;;;;;;;16.86;35.98;102643.25;4949408;29;20142;-71
2024/01/20 03:36:50;;;;;;;9.32;4.93;;;;;;;16.74;36.36;102619.25;4949308;29;20028;-71
2024/01/20 03:39:16;;;;;;;9.20;4.45;;;;;;;16.82;36.17;102636.38;4949011;29;20035;-71
2024/01/20 03:41:41;;;;;;;8.98;4.55;;;;;;;16.77;36.39;102624.38;4949353;29;20033;-71
2024/01/20 03:44:06;;;;;;;6.97;4.28;;;;;;;16.72;36.57;102614.06;4949152;29;20028;-71
2024/01/20 03:46:31;;;;;;;7.22;4.40;;;;;;;16.85;36.47;102643.28;4948810;29;20050;-71
2024/01/20 03:48:57;;;;;;;10.20;4.40;;;;;;;16.87;36.40;102652.00;4949090;29;20086;-71
2024/01/20 03:51:26;;;;;;;7.60;4.47;;;;;;;16.82;36.23;102644.28;4949368;29;20480;-71
2024/01/20 03:53:52;;;;;;;7.65;4.65;;;;;;;16.75;36.35;102623.56;4948796;29;20033;-71
2024/01/20 03:56:17;;;;;;;7.78;4.13;;;;;;;16.83;36.58;102635.44;4948962;28;20110;-71
2024/01/20 03:58:42;;;;;;;7.80;4.22;;;;;;;16.87;36.28;102644.09;4949092;29;20035;-71
2024/01/20 04:01:07;;;;;;;8.10;4.60;;;;;;;16.84;36.75;102646.84;4948509;29;20106;-70
2024/01/20 04:03:33;;;;;;;8.32;4.30;;;;;;;16.74;36.70;102617.44;4946791;29;20285;-70
2024/01/20 04:05:58;;;;;;;7.72;3.78;;;;;;;16.85;36.78;102645.91;4948981;29;20118;-71
2024/01/20 04:08:23;;;;;;;8.75;4.07;;;;;;;16.85;36.78;102645.91;4947325;29;20039;-71
2024/01/20 04:10:49;;;;;;;7.55;3.70;;;;;;;16.77;36.62;102622.56;4948903;29;20138;-71
2024/01/20 04:13:14;;;;;;;7.40;3.65;;;;;;;16.84;36.65;102642.41;4948458;28;20031;-71
2024/01/20 04:15:39;;;;;;;9.63;4.43;;;;;;;16.73;36.53;102614.91;4947608;29;20453;-71
2024/01/20 04:18:05;;;;;;;8.70;4.30;;;;;;;16.83;36.62;102632.81;4948697;29;20042;-71
2024/01/20 04:20:30;;;;;;;8.50;4.20;;;;;;;16.78;36.38;102629.56;4949131;29;20027;-71
2024/01/20 04:22:55;;;;;;;7.27;3.93;;;;;;;16.86;36.81;102651.16;4948309;29;20058;-71
2024/01/20 04:25:20;;;;;;;9.05;4.53;;;;;;;16.77;36.87;102641.00;4949030;29;20257;-71
2024/01/20 04:27:46;;;;;;;9.73;3.97;;;;;;;16.72;36.54;102634.25;4948596;29;20403;-71
2024/01/20 04:30:12;;;;;;;8.52;4.18;;;;;;;16.79;36.54;102652.31;4948466;29;20391;-71
2024/01/20 04:32:37;;;;;;;7.47;4.13;;;;;;;16.80;36.00;102650.56;4947464;28;20167;-71
2024/01/20 04:35:06;;;;;;;8.82;4.15;;;;;;;16.76;36.37;102649.81;4948502;29;20138;-71
2024/01/20 04:37:31;;;;;;;9.10;4.45;;;;;;;16.75;36.36;102647.25;4948074;29;20027;-71
2024/01/20 04:39:57;;;;;;;7.20;4.00;;;;;;;16.82;36.02;102661.84;4948377;29;20036;-71
2024/01/20 04:42:22;;;;;;;7.00;3.90;;;;;;;16.89;35.98;102678.25;4948288;29;20473;-71
2024/01/20 04:44:48;;;;;;;7.05;4.18;;;;;;;16.85;36.06;102675.75;4948978;28;20484;-71
2024/01/20 04:47:13;;;;;;;7.60;4.10;;;;;;;16.78;35.78;102653.25;4948943;28;20066;-71
2024/01/20 04:49:38;;;;;;;7.43;3.80;;;;;;;16.86;35.99;102671.34;4948459;29;20038;-71
2024/01/20 04:52:04;;;;;;;8.38;3.88;;;;;;;16.86;36.00;102681.88;4948391;29;20051;-71
2024/01/20 04:54:29;;;;;;;7.93;4.10;;;;;;;16.86;35.80;102682.75;4948525;28;20031;-71
2024/01/20 04:56:57;;;;;;;8.02;3.78;;;;;;;16.84;36.10;102675.78;4948436;29;20035;-71
2024/01/20 04:59:22;;;;;;;7.18;4.38;;;;;;;16.82;36.03;102669.75;4948020;28;20491;-71
2024/01/20 05:01:48;;;;;;;8.88;3.97;;;;;;;16.86;35.86;102676.59;4947568;29;20042;-70
2024/01/20 05:04:14;;;;;;;7.07;3.90;;;;;;;16.87;36.29;102670.41;4947215;29;20458;-71
2024/01/20 05:06:39;;;;;;;9.07;4.10;;;;;;;16.76;36.04;102655.09;4948424;28;20031;-71
2024/01/20 05:09:04;;;;;;;7.65;4.30;;;;;;;16.85;35.99;102666.97;4948275;29;20040;-71
2024/01/20 05:11:30;;;;;;;7.10;3.70;;;;;;;16.83;36.34;102669.69;4948432;29;20432;-71
2024/01/20 05:13:55;;;;;;;7.25;3.90;;;;;;;16.77;36.37;102658.59;4948312;28;20114;-71
2024/01/20 05:16:20;;;;;;;7.20;3.80;;;;;;;16.85;36.51;102682.78;4948361;29;20185;-71
2024/01/20 05:18:46;;;;;;;7.28;3.88;;;;;;;16.76;36.30;102659.50;4948654;29;20043;-71
2024/01/20 05:21:14;;;;;;;6.80;3.85;;;;;;;16.78;36.34;102669.06;4947770;29;20042;-71
2024/01/20 05:23:40;;;;;;;7.75;3.63;;;;;;;16.79;36.28;102672.53;4948088;28;20031;-71
2024/01/20 05:26:06;;;;;;;6.38;3.83;;;;;;;16.86;36.70;102688.00;4948084;28;20027;-70
2024/01/20 05:28:31;;;;;;;8.40;4.18;;;;;;;16.88;36.35;102684.44;4950569;29;20395;-70
2024/01/20 05:30:56;;;;;;;6.60;3.80;;;;;;;16.91;36.44;102693.06;4950261;28;20032;-71
2024/01/20 05:33:22;;;;;;;6.70;3.58;;;;;;;16.86;36.89;102685.38;4951364;29;20035;-71
2024/01/20 05:35:47;;;;;;;6.25;2.72;;;;;;;16.80;37.29;102669.00;4951503;29;20047;-71
2024/01/20 05:38:12;;;;;;;6.15;2.50;;;;;;;16.84;38.18;102667.91;4951694;29;20122;-71
2024/01/20 05:40:37;;;;;;;5.43;2.50;;;;;;;16.99;38.36;102688.28;4951764;29;20031;-71
2024/01/20 05:43:04;;;;;;;6.03;2.20;;;;;;;17.07;38.70;102698.47;4950215;29;20738;-71
2024/01/20 05:45:30;;;;;;;6.78;2.30;;;;;;;17.09;38.54;102693.13;4951807;29;20034;-71
2024/01/20 05:47:55;;;;;;;6.22;2.55;;;;;;;17.02;38.96;102669.72;4951430;29;20032;-71
2024/01/20 05:50:21;;;;;;;5.15;2.53;;;;;;;17.18;38.79;102696.16;4951597;29;20035;-70
2024/01/20 05:52:46;;;;;;;6.00;2.47;;;;;;;17.12;38.88;102674.53;4951652;29;20043;-71
2024/01/20 05:55:11;;;;;;;6.13;2.35;;;;;;;17.17;38.85;102681.28;4950153;29;20038;-71
2024/01/20 05:57:37;;;;;;;5.65;2.33;;;;;;;17.20;38.58;102683.78;4951395;28;20098;-71
2024/01/20 06:00:03;;;;;;;6.60;2.30;;;;;;;17.31;38.90;102704.34;4951399;29;20027;-70
2024/01/20 06:02:29;;;;;;;7.45;2.83;;;;;;;17.32;38.82;102698.16;4947995;29;20288;-70
2024/01/20 06:04:54;;;;;;;5.25;2.22;;;;;;;17.34;39.02;102698.91;4950639;29;20037;-70
2024/01/20 06:07:19;;;;;;;6.50;2.13;;;;;;;17.37;38.72;102703.16;4951180;29;20228;-70
2024/01/20 06:09:45;;;;;;;5.72;2.53;;;;;;;17.41;38.66;102713.50;4950345;28;20039;-69
2024/01/20 06:12:12;;;;;;;6.13;2.55;;;;;;;17.29;38.70;102690.38;4950948;29;20023;-70
2024/01/20 06:14:37;;;;;;;6.70;2.60;;;;;;;17.44;38.65;102714.28;4950808;29;20032;-69
2024/01/20 06:17:02;;;;;;;6.28;2.28;;;;;;;17.44;38.83;102709.84;4950607;28;20027;-69
2024/01/20 06:19:28;;;;;;;6.20;2.47;;;;;;;17.44;38.67;102709.84;4949066;29;20031;-69
2024/01/20 06:21:53;;;;;;;5.90;2.10;;;;;;;17.46;38.63;102712.41;4949592;29;20098;-70
2024/01/20 06:24:18;;;;;;;6.88;2.30;;;;;;;17.45;38.68;102719.50;4950386;29;20429;-71
2024/01/20 06:26:43;;;;;;;5.90;2.10;;;;;;;17.33;38.73;102693.72;4950609;29;20042;-71
2024/01/20 06:29:11;;;;;;;6.32;2.20;;;;;;;17.38;38.98;102707.53;4950914;29;20031;-70
2024/01/20 06:31:37;;;;;;;6.10;3.00;;;;;;;17.48;38.79;102729.00;4950707;28;20039;-70
2024/01/20 06:34:03;;;;;;;6.63;2.20;;;;;;;17.40;38.72;102714.44;4950383;28;20078;-70
2024/01/20 06:36:28;;;;;;;5.22;2.15;;;;;;;17.49;38.77;102722.81;4950411;28;20400;-69
2024/01/20 06:38:54;;;;;;;5.50;2.10;;;;;;;17.48;38.54;102727.25;4950630;28;20039;-70
2024/01/20 06:41:19;;;;;;;6.25;2.05;;;;;;;17.40;38.80;102722.34;4950512;28;20031;-70
2024/01/20 06:43:45;;;;;;;4.72;1.80;;;;;;;17.48;38.69;102740.44;4950527;28;20110;-70
2024/01/20 06:46:10;;;;;;;5.15;2.20;;;;;;;17.45;38.73;102740.56;4949591;29;20043;-69
2024/01/20 06:48:35;;;;;;;6.93;2.25;;;;;;;17.41;38.39;102729.31;4950195;29;20571;-70
2024/01/20 06:51:03;;;;;;;7.18;2.33;;;;;;;17.31;38.35;102711.41;4950475;28;20035;-70
2024/01/20 06:53:28;;;;;;;5.80;2.20;;;;;;;17.31;38.05;102724.56;4950249;28;20039;-70
2024/01/20 06:55:54;;;;;;;4.72;2.67;;;;;;;17.44;38.36;102751.19;4948653;28;20019;-70
2024/01/20 06:58:19;;;;;;;6.97;2.40;;;;;;;17.44;38.28;102756.47;4950074;29;20050;-70
2024/01/20 07:00:44;;;;;;;5.90;2.20;;;;;;;17.47;38.02;102751.03;4950022;28;20035;-69
2024/01/20 07:03:10;;;;;;;5.40;2.20;;;;;;;17.45;38.49;102752.88;4948169;29;20143;-70
2024/01/20 07:05:35;;;;;;;5.47;2.25;;;;;;;17.41;38.30;102749.53;4950335;29;20273;-69
2024/01/20 07:08:00;;;;;;;4.17;2.00;;;;;;;17.36;38.07;102748.91;4950009;29;20114;-70
2024/01/20 07:10:25;;;;;;;5.47;1.90;;;;;;;17.36;38.49;102748.91;4950113;29;20637;-70
2024/01/20 07:12:51;;;;;;;6.15;2.25;;;;;;;17.34;38.56;102737.56;4948811;29;20162;-70
2024/01/20 07:15:16;;;;;;;4.45;2.00;;;;;;;17.27;38.67;102728.28;4949964;29;20035;-70
2024/01/20 07:17:41;;;;;;;5.20;1.88;;;;;;;17.34;38.34;102738.44;4949791;29;20388;-70
2024/01/20 07:20:07;;;;;;;5.57;1.80;;;;;;;17.40;38.71;102747.81;4949542;29;20717;-70
2024/01/20 07:22:32;;;;;;;4.85;2.03;;;;;;;17.46;38.33;102755.44;4949820;28;20042;-70
2024/01/20 07:24:58;;;;;;;5.53;2.08;;;;;;;17.47;38.38;102762.44;4949311;29;20053;-70
2024/01/20 07:27:23;;;;;;;5.45;2.20;;;;;;;17.35;38.71;102737.50;4950233;28;20027;-70
2024/01/20 07:29:48;;;;;;;5.05;2.17;;;;;;;17.46;38.43;102755.44;4949573;29;20122;-71
2024/01/20 07:32:14;;;;;;;4.32;1.83;;;;;;;17.37;38.93;102743.56;4949631;29;20024;-70
2024/01/20 07:34:39;;;;;;;5.25;2.00;;;;;;;17.46;38.55;102759.88;4949043;28;20086;-70
2024/01/20 07:37:05;;;;;;;6.22;2.15;;;;;;;17.43;38.82;102750.31;4949666;29;20035;-70
2024/01/20 07:39:30;;;;;;;4.82;1.85;;;;;;;17.46;38.63;102754.59;4949439;29;20035;-70
2024/01/20 07:41:55;;;;;;;5.80;2.30;;;;;;;17.48;39.05;102765.91;4949220;29;20094;-71
2024/01/20 07:44:20;;;;;;;5.38;2.10;;;;;;;17.50;38.97;102764.03;4948692;29;20461;-71
2024/01/20 07:46:46;;;;;;;7.28;2.38;;;;;;;17.48;38.79;102763.28;4949396;29;20043;-70
2024/01/20 07:49:12;;;;;;;5.88;1.85;;;;;;;17.42;38.82;102746.00;4948594;28;20109;-70
2024/01/20 07:51:37;;;;;;;6.95;2.33;;;;;;;17.39;38.88;102744.34;4949346;28;20150;-70
2024/01/20 07:54:02;;;;;;;6.20;2.42;;;;;;;17.42;39.22;102753.91;4949465;29;20038;-70
2024/01/20 07:56:27;;;;;;;5.05;2.28;;;;;;;17.52;38.95;102775.41;4945774;29;20031;-70
2024/01/20 07:58:53;;;;;;;5.38;2.15;;;;;;;17.43;38.83;102766.13;4948936;29;20035;-70
2024/01/20 08:01:18;;;;;;;5.22;1.92;;;;;;;17.54;38.62;102777.00;4949199;29;20039;-69
2024/01/20 08:03:43;;;;;;;7.25;2.33;;;;;;;17.58;38.57;102780.38;4946627;29;20042;-70
2024/01/20 08:06:09;;;;;;;6.13;2.38;;;;;;;17.43;38.49;102758.22;4948764;29;20399;-70
2024/01/20 08:08:34;;;;;;;7.75;2.38;;;;;;;17.56;39.07;102784.84;4948138;28;20154;-69
2024/01/20 08:11:00;;;;;;;7.53;2.63;;;;;;;17.50;38.93;102766.69;4948988;29;20082;-70
2024/01/20 08:13:26;;;;;;;5.32;2.10;;;;;;;17.52;39.10;102770.13;4948760;29;20031;-69
2024/01/20 08:15:51;;;;;;;7.45;2.20;;;;;;;17.57;39.13;102783.94;4949412;28;20027;-69
2024/01/20 08:18:16;;;;;;;7.57;2.72;;;;;;;17.56;39.66;102782.22;4948597;29;20361;-69
2024/01/20 08:20:42;;;;;;;5.82;2.38;;;;;;;17.56;39.28;102791.00;4948971;29;20034;-69
2024/01/20 08:23:07;;;;;;;5.55;2.22;;;;;;;17.49;39.34;102775.53;4948610;29;20046;-69
2024/01/20 08:25:32;;;;;;;8.00;2.45;;;;;;;17.52;39.19;102781.50;4949122;29;20046;-70
2024/01/20 08:27:57;;;;;;;6.22;2.30;;;;;;;17.57;39.10;102795.31;4948528;29;20468;-71
2024/01/20 08:30:23;;;;;;;5.38;2.30;;;;;;;17.55;39.32;102791.06;4948962;29;20032;-71
2024/01/20 08:32:48;;;;;;;4.38;1.98;;;;;;;17.58;39.47;102797.03;4948043;29;20035;-70
2024/01/20 08:35:13;;;;;;;7.30;2.30;;;;;;;17.60;39.65;102794.31;4948652;29;20047;-70
2024/01/20 08:37:38;;;;;;;5.13;2.20;;;;;;;17.60;39.45;102802.25;4948508;29;20441;-70
2024/01/20 08:40:04;;;;;;;7.22;2.08;;;;;;;17.62;39.83;102810.06;4946527;29;20055;-70
2024/01/20 08:42:30;;;;;;;7.70;2.50;;;;;;;17.59;39.70;102804.03;4944555;28;20059;-70
2024/01/20 08:44:55;;;;;;;7.93;2.53;;;;;;;17.50;39.38;102785.13;4948647;29;20030;-70
2024/01/20 08:47:20;;;;;;;4.60;2.15;;;;;;;17.66;39.48;102812.50;4943637;29;20777;-70
2024/01/20 08:49:51;;;;;;;7.95;2.50;;;;;;;17.54;39.09;102792.81;4945742;29;20035;-71
2024/01/20 08:52:17;;;;;;;6.45;3.10;;;;;;;17.53;39.16;102799.03;4948014;29;20042;-71
2024/01/20 08:54:42;;;;;;;5.38;2.72;;;;;;;17.67;38.72;102815.97;4947052;28;20046;-71
2024/01/20 08:57:08;;;;;;;6.32;2.50;;;;;;;17.57;38.90;102795.31;4947256;29;20472;-71
2024/01/20 08:59:33;;;;;;;7.28;2.63;;;;;;;17.69;38.24;102822.03;4947603;28;20464;-71
2024/01/20 09:01:59;;;;;;;8.38;2.92;;;;;;;17.59;38.84;102796.13;4948595;29;20035;-71
2024/01/20 09:04:24;;;;;;;8.38;3.00;;;;;;;17.71;38.88;102813.13;4950605;29;20038;-70
2024/01/20 09:06:49;;;;;;;6.60;2.53;;;;;;;17.66;39.04;102806.38;4951498;29;20036;-68
2024/01/20 09:09:14;;;;;;;7.03;2.75;;;;;;;17.75;39.16;102819.09;4951576;29;20034;-69
2024/01/20 09:11:40;;;;;;;6.22;2.60;;;;;;;17.72;39.17;102819.25;4951280;29;20034;-70
2024/01/20 09:14:05;;;;;;;7.63;3.08;;;;;;;17.75;39.20;102822.59;4951309;29;20031;-70
2024/01/20 09:16:30;;;;;;;7.40;2.60;;;;;;;17.62;38.90;102805.66;4951534;29;20479;-71
2024/01/20 09:18:56;;;;;;;7.85;3.20;;;;;;;17.74;39.43;102815.59;4950276;29;20403;-71
2024/01/20 09:21:21;;;;;;;7.95;2.72;;;;;;;17.80;39.21;102835.56;4951223;29;20365;-72
2024/01/20 09:23:46;;;;;;;8.38;2.80;;;;;;;17.61;39.42;102800.44;4950613;29;20601;-69
2024/01/20 09:26:12;;;;;;;5.97;2.80;;;;;;;17.81;39.28;102828.50;4951375;29;20038;-69
2024/01/20 09:28:37;;;;;;;4.95;2.25;;;;;;;17.80;39.52;102827.66;4952142;29;20440;-68
2024/01/20 09:31:03;;;;;;;9.68;2.70;;;;;;;17.70;39.17;102814.03;4946258;29;20032;-71
2024/01/20 09:33:28;;;;;;;9.13;3.00;;;;;;;17.71;39.43;102809.63;4949174;28;20023;-70
2024/01/20 09:35:53;;;;;;;6.65;2.60;;;;;;;17.79;39.42;102825.09;4950766;29;20118;-69
2024/01/20 09:38:19;;;;;;;7.13;2.35;;;;;;;17.69;39.33;102809.72;4948173;29;20051;-69
2024/01/20 09:40:45;;;;;;;6.25;2.33;;;;;;;17.73;39.39;102813.88;4944920;29;20483;-70
2024/01/20 09:43:11;;;;;;;6.40;2.80;;;;;;;17.79;39.01;102831.22;4949905;29;20487;-70
2024/01/20 09:45:38;;;;;;;6.25;2.30;;;;;;;17.76;38.83;102826.09;4951641;28;20121;-70
2024/01/20 09:48:06;;;;;;;7.13;2.70;;;;;;;17.74;39.76;102836.72;4950167;28;20039;-70
2024/01/20 09:50:31;;;;;;;8.23;2.53;;;;;;;17.73;39.64;102837.63;4950426;28;20039;-70
2024/01/20 09:53:01;;;;;;;7.35;2.20;;;;;;;17.81;39.86;102852.25;4950677;29;20035;-70
2024/01/20 09:55:27;;;;;;;6.53;2.90;;;;;;;17.74;40.23;102833.22;4950183;28;20114;-70
2024/01/20 09:57:53;;;;;;;6.53;2.63;;;;;;;17.76;39.90;102834.84;4949673;28;20031;-71
2024/01/20 10:00:23;;;;;;;6.03;2.20;;;;;;;17.76;39.44;102834.84;4949277;28;20031;-71
2024/01/20 10:02:48;;;;;;;6.57;2.10;;;;;;;17.79;39.50;102844.41;4948955;28;20039;-70
2024/01/20 10:05:15;;;;;;;5.80;2.35;;;;;;;17.85;39.54;102859.06;4951293;28;20357;-71
2024/01/20 10:07:41;;;;;;;6.10;2.45;;;;;;;17.84;39.41;102854.72;4951311;28;20039;-70
2024/01/20 10:10:07;;;;;;;6.25;2.53;;;;;;;17.82;39.75;102848.69;4950961;28;20031;-70
2024/01/20 10:12:33;;;;;;;6.78;2.40;;;;;;;17.73;39.49;102842.06;4950350;28;20396;-70
2024/01/20 10:14:58;;;;;;;6.38;2.50;;;;;;;17.74;39.99;102847.25;4951153;28;20049;-70
2024/01/20 10:17:23;;;;;;;6.63;2.28;;;;;;;17.85;40.36;102857.28;4951149;29;20566;-70
2024/01/20 10:19:49;;;;;;;4.90;2.10;;;;;;;17.75;40.54;102842.81;4951173;29;20027;-70
2024/01/20 10:22:14;;;;;;;4.20;2.15;;;;;;;17.76;40.74;102845.38;4950587;29;20034;-70
2024/01/20 10:24:51;;;;;;;6.53;2.20;;;;;;;17.91;40.95;102867.59;4951197;29;20046;-70
2024/01/20 10:27:20;;;;;;;5.55;1.90;;;;;;;17.80;40.99;102838.22;4951106;28;20031;-70
2024/01/20 10:29:46;;;;;;;5.78;2.13;;;;;;;17.93;40.57;102863.06;4950756;28;20039;-70
2024/01/20 10:32:12;;;;;;;7.70;2.38;;;;;;;17.93;40.45;102859.59;4950493;29;20459;-70
2024/01/20 10:34:37;;;;;;;6.95;2.08;;;;;;;17.88;40.82;102841.34;4950504;28;20134;-69
2024/01/20 10:37:10;;;;;;;6.40;2.20;;;;;;;17.95;40.87;102847.19;4950894;29;20102;-70
2024/01/20 10:39:40;;;;;;;7.28;2.15;;;;;;;17.94;41.29;102843.69;4950259;28;20043;-71
2024/01/20 10:42:09;;;;;;;5.47;2.38;;;;;;;17.82;41.36;102814.41;4949235;28;20535;-71
2024/01/20 10:44:37;;;;;;;5.13;2.05;;;;;;;17.82;40.75;102809.97;4950520;28;20442;-70
2024/01/20 10:47:10;;;;;;;6.78;2.40;;;;;;;17.89;40.58;102823.72;4944372;28;20036;-70
2024/01/20 10:49:42;;;;;;;5.85;2.72;;;;;;;17.92;41.05;102834.97;4949118;28;20118;-70
2024/01/20 10:52:08;;;;;;;7.90;2.60;;;;;;;17.96;40.99;102843.63;4950133;28;20546;-70
2024/01/20 10:54:34;;;;;;;7.28;1.92;;;;;;;17.93;40.83;102839.34;4949807;29;20051;-69
2024/01/20 10:56:59;;;;;;;7.10;2.05;;;;;;;17.95;41.34;102839.25;4950403;28;20420;-70
2024/01/20 10:59:27;;;;;;;6.90;2.80;;;;;;;17.86;41.19;102834.41;4949954;28;20034;-69
2024/01/20 11:01:53;;;;;;;5.65;2.30;;;;;;;17.84;40.90;102823.91;4946964;29;20077;-69
2024/01/20 11:04:19;;;;;;;8.13;2.20;;;;;;;17.86;41.04;102829.97;4949025;28;20055;-70
2024/01/20 11:06:44;;;;;;;5.72;2.30;;;;;;;17.85;41.18;102824.75;4949690;28;20058;-69
2024/01/20 11:09:19;;;;;;;6.20;2.47;;;;;;;17.97;41.44;102847.09;4949670;29;20126;-69
2024/01/20 11:11:58;;;;;;;6.22;2.28;;;;;;;18.00;41.18;102854.88;4949530;28;20046;-69
2024/01/20 11:14:31;;;;;;;6.53;2.40;;;;;;;17.91;40.92;102840.31;4940726;28;20122;-70
2024/01/20 11:16:57;;;;;;;11.60;3.10;;;;;;;18.01;40.95;102844.25;4948535;29;20643;-69